KCGF/CGF METAR and TAF weather

Enter ICAO airport designator
Station Type Date Time Source
KCGF METAR 2021/09/16 21:45 UTC NOAA

KCGF 162145Z 12009KT 20SM FEW045 26/14 A3012


Station Type Date Time Source
KCGF Decoded METAR 2021/09/16 21:45 UTC NOAA

Cleveland / Cuyahoga, OH, United States (KCGF) 41-34N 081-29W
Sep 16, 2021 - 05:45 PM EDT / 2021.09.16 2145 UTC
Wind: from the ESE (120 degrees) at 10 MPH (9 KT):0
Visibility: 20 mile(s):0
Sky conditions: mostly clear
Temperature: 78 F (26 C)
Dew Point: 57 F (14 C)
Relative Humidity: 47%
Pressure (altimeter): 30.12 in. Hg (1019 hPa)
ob: KCGF 162145Z 12009KT 20SM FEW045 26/14 A3012
cycle: 22

Station Type Date Time Source
KCGF TAF 2016/07/19 12:36 UTC NOAA

TAF KCGF 191136Z 1912/2012 VRB05KT P6SM SCT080
FM191400 33008KT P6SM SCT040
FM191900 35008KT P6SM SCT060
FM200000 04003KT P6SM SCT080
FM200700 14003KT P6SM SKC

Example: see airport list